sensor_id;sensor_type;location;lat;lon;timestamp;pressure;altitude;pressure_sealevel;temperature;humidity
68988;BME280;56038;46.080;11.116;2023-04-01T00:03:46;98235.59;;;9.22;81.26
68988;BME280;56038;46.080;11.116;2023-04-01T00:08:57;98240.88;;;9.21;81.41
68988;BME280;56038;46.080;11.116;2023-04-01T00:14:03;98233.31;;;9.16;82.10
68988;BME280;56038;46.080;11.116;2023-04-01T00:19:05;98235.91;;;9.16;81.62
68988;BME280;56038;46.080;11.116;2023-04-01T00:24:08;98229.25;;;9.11;82.08
68988;BME280;56038;46.080;11.116;2023-04-01T00:29:10;98242.44;;;9.08;81.86
68988;BME280;56038;46.080;11.116;2023-04-01T00:34:12;98242.59;;;9.05;81.86
68988;BME280;56038;46.080;11.116;2023-04-01T00:39:15;98237.56;;;9.02;81.58
68988;BME280;56038;46.080;11.116;2023-04-01T00:44:20;98237.78;;;8.97;81.92
68988;BME280;56038;46.080;11.116;2023-04-01T00:49:25;98242.47;;;8.90;81.58
68988;BME280;56038;46.080;11.116;2023-04-01T00:54:31;98235.88;;;8.83;82.10
68988;BME280;56038;46.080;11.116;2023-04-01T00:59:34;98234.06;;;8.85;82.47
68988;BME280;56038;46.080;11.116;2023-04-01T01:04:39;98256.78;;;8.82;82.07
68988;BME280;56038;46.080;11.116;2023-04-01T01:09:56;98259.78;;;8.74;81.48
68988;BME280;56038;46.080;11.116;2023-04-01T01:15:12;98254.91;;;8.68;81.24
68988;BME280;56038;46.080;11.116;2023-04-01T01:26:09;98256.56;;;8.34;82.06
68988;BME280;56038;46.080;11.116;2023-04-01T01:31:22;98251.22;;;8.37;82.01
68988;BME280;56038;46.080;11.116;2023-04-01T01:36:28;98243.41;;;8.37;82.36
68988;BME280;56038;46.080;11.116;2023-04-01T01:41:35;98247.00;;;8.35;82.26
68988;BME280;56038;46.080;11.116;2023-04-01T01:46:40;98239.53;;;8.27;83.40
68988;BME280;56038;46.080;11.116;2023-04-01T01:51:44;98238.94;;;8.22;82.88
68988;BME280;56038;46.080;11.116;2023-04-01T01:56:49;98241.97;;;8.13;82.89
68988;BME280;56038;46.080;11.116;2023-04-01T02:01:55;98240.28;;;8.12;82.91
68988;BME280;56038;46.080;11.116;2023-04-01T02:07:02;98248.41;;;8.06;82.98
68988;BME280;56038;46.080;11.116;2023-04-01T02:12:06;98245.84;;;8.04;82.54
68988;BME280;56038;46.080;11.116;2023-04-01T02:17:11;98249.50;;;8.00;82.98
68988;BME280;56038;46.080;11.116;2023-04-01T02:22:18;98251.25;;;8.00;83.06
68988;BME280;56038;46.080;11.116;2023-04-01T02:27:21;98247.28;;;7.93;83.36
68988;BME280;56038;46.080;11.116;2023-04-01T02:32:23;98247.81;;;7.99;82.65
68988;BME280;56038;46.080;11.116;2023-04-01T02:37:28;98241.72;;;8.00;82.04
68988;BME280;56038;46.080;11.116;2023-04-01T02:42:30;98252.34;;;7.96;82.16
68988;BME280;56038;46.080;11.116;2023-04-01T02:47:32;98255.16;;;7.72;82.84
68988;BME280;56038;46.080;11.116;2023-04-01T02:52:35;98264.78;;;7.70;82.91
68988;BME280;56038;46.080;11.116;2023-04-01T02:57:37;98265.69;;;7.69;82.87
68988;BME280;56038;46.080;11.116;2023-04-01T03:02:39;98276.88;;;7.71;82.92
68988;BME280;56038;46.080;11.116;2023-04-01T03:07:42;98269.13;;;7.70;82.42
68988;BME280;56038;46.080;11.116;2023-04-01T03:12:44;98284.34;;;7.60;82.76
68988;BME280;56038;46.080;11.116;2023-04-01T03:17:46;98283.28;;;7.45;82.40
68988;BME280;56038;46.080;11.116;2023-04-01T03:22:50;98292.81;;;7.45;82.06
68988;BME280;56038;46.080;11.116;2023-04-01T03:27:51;98301.63;;;7.41;81.82
68988;BME280;56038;46.080;11.116;2023-04-01T03:32:53;98307.25;;;7.32;81.73
68988;BME280;56038;46.080;11.116;2023-04-01T03:37:56;98298.25;;;7.20;81.98
68988;BME280;56038;46.080;11.116;2023-04-01T03:42:58;98306.31;;;7.14;82.36
68988;BME280;56038;46.080;11.116;2023-04-01T03:48:00;98322.06;;;7.09;82.50
68988;BME280;56038;46.080;11.116;2023-04-01T03:53:03;98316.00;;;7.10;82.43
68988;BME280;56038;46.080;11.116;2023-04-01T03:58:06;98321.81;;;7.15;82.28
68988;BME280;56038;46.080;11.116;2023-04-01T04:03:08;98321.53;;;7.21;81.57
68988;BME280;56038;46.080;11.116;2023-04-01T04:08:11;98320.28;;;7.11;82.04
68988;BME280;56038;46.080;11.116;2023-04-01T04:13:13;98325.56;;;7.08;82.00
68988;BME280;56038;46.080;11.116;2023-04-01T04:18:15;98326.69;;;7.03;82.03
68988;BME280;56038;46.080;11.116;2023-04-01T04:23:18;98332.16;;;6.97;82.37
68988;BME280;56038;46.080;11.116;2023-04-01T04:28:20;98339.88;;;6.98;81.87
68988;BME280;56038;46.080;11.116;2023-04-01T04:33:22;98348.44;;;6.80;82.18
68988;BME280;56038;46.080;11.116;2023-04-01T04:38:26;98350.47;;;6.72;82.77
68988;BME280;56038;46.080;11.116;2023-04-01T04:43:28;98354.06;;;6.69;82.56
68988;BME280;56038;46.080;11.116;2023-04-01T04:48:30;98358.97;;;6.75;82.87
68988;BME280;56038;46.080;11.116;2023-04-01T04:53:33;98352.81;;;6.78;82.41
68988;BME280;56038;46.080;11.116;2023-04-01T04:58:35;98363.38;;;6.73;82.34
68988;BME280;56038;46.080;11.116;2023-04-01T05:03:36;98366.19;;;6.69;82.53
68988;BME280;56038;46.080;11.116;2023-04-01T05:08:40;98370.59;;;6.67;82.10
68988;BME280;56038;46.080;11.116;2023-04-01T05:13:43;98375.47;;;6.74;81.84
68988;BME280;56038;46.080;11.116;2023-04-01T05:18:46;98379.56;;;6.80;81.41
68988;BME280;56038;46.080;11.116;2023-04-01T05:23:49;98382.94;;;6.82;81.28
68988;BME280;56038;46.080;11.116;2023-04-01T05:28:51;98387.75;;;6.91;81.03
68988;BME280;56038;46.080;11.116;2023-04-01T05:33:53;98387.38;;;7.00;80.66
68988;BME280;56038;46.080;11.116;2023-04-01T05:38:56;98392.19;;;7.30;80.92
68988;BME280;56038;46.080;11.116;2023-04-01T05:43:58;98393.81;;;7.71;79.98
68988;BME280;56038;46.080;11.116;2023-04-01T05:49:00;98397.56;;;7.66;78.73
68988;BME280;56038;46.080;11.116;2023-04-01T05:54:04;98393.81;;;7.71;78.34
68988;BME280;56038;46.080;11.116;2023-04-01T05:59:06;98390.91;;;7.79;77.85
68988;BME280;56038;46.080;11.116;2023-04-01T06:04:11;98397.41;;;7.89;77.38
68988;BME280;56038;46.080;11.116;2023-04-01T06:09:17;98404.47;;;8.04;76.70
68988;BME280;56038;46.080;11.116;2023-04-01T06:14:27;98406.13;;;8.07;76.43
68988;BME280;56038;46.080;11.116;2023-04-01T06:19:36;98415.03;;;8.20;76.00
68988;BME280;56038;46.080;11.116;2023-04-01T06:24:48;98415.03;;;8.20;75.65
68988;BME280;56038;46.080;11.116;2023-04-01T06:30:01;98413.00;;;8.27;75.52
68988;BME280;56038;46.080;11.116;2023-04-01T06:35:21;98424.81;;;8.34;75.10
68988;BME280;56038;46.080;11.116;2023-04-01T06:40:55;98430.47;;;8.44;75.64
68988;BME280;56038;46.080;11.116;2023-04-01T06:46:09;98435.19;;;8.54;75.00
68988;BME280;56038;46.080;11.116;2023-04-01T06:51:24;98438.94;;;8.66;74.21
68988;BME280;56038;46.080;11.116;2023-04-01T06:56:32;98426.88;;;8.82;74.69
68988;BME280;56038;46.080;11.116;2023-04-01T07:01:39;98414.59;;;9.20;74.02
68988;BME280;56038;46.080;11.116;2023-04-01T07:06:46;98419.56;;;9.42;73.02
68988;BME280;56038;46.080;11.116;2023-04-01T07:11:53;98422.03;;;9.63;73.09
68988;BME280;56038;46.080;11.116;2023-04-01T07:16:59;98428.38;;;9.90;72.93
68988;BME280;56038;46.080;11.116;2023-04-01T07:22:26;98422.16;;;10.10;72.20
68988;BME280;56038;46.080;11.116;2023-04-01T07:27:30;98409.66;;;10.32;71.43
68988;BME280;56038;46.080;11.116;2023-04-01T07:32:39;98416.19;;;10.39;71.15
68988;BME280;56038;46.080;11.116;2023-04-01T07:37:54;98405.34;;;10.47;71.14
68988;BME280;56038;46.080;11.116;2023-04-01T07:43:19;98404.69;;;10.59;69.52
68988;BME280;56038;46.080;11.116;2023-04-01T07:48:28;98394.47;;;10.70;69.60
68988;BME280;56038;46.080;11.116;2023-04-01T07:53:37;98400.88;;;10.65;69.43
68988;BME280;56038;46.080;11.116;2023-04-01T07:58:50;98412.50;;;10.59;69.05
68988;BME280;56038;46.080;11.116;2023-04-01T08:04:11;98400.31;;;10.44;68.83
68988;BME280;56038;46.080;11.116;2023-04-01T08:09:24;98401.06;;;10.46;69.61
68988;BME280;56038;46.080;11.116;2023-04-01T08:14:38;98389.94;;;10.42;69.47
68988;BME280;56038;46.080;11.116;2023-04-01T08:19:56;98389.78;;;10.45;68.89
68988;BME280;56038;46.080;11.116;2023-04-01T08:25:05;98391.63;;;10.59;69.27
68988;BME280;56038;46.080;11.116;2023-04-01T08:30:18;98380.34;;;10.59;69.48
68988;BME280;56038;46.080;11.116;2023-04-01T08:35:26;98379.81;;;10.68;69.02
68988;BME280;56038;46.080;11.116;2023-04-01T08:40:41;98375.25;;;10.71;68.48
68988;BME280;56038;46.080;11.116;2023-04-01T08:46:13;98372.34;;;10.92;68.44
68988;BME280;56038;46.080;11.116;2023-04-01T08:57:11;98366.13;;;11.67;66.35
68988;BME280;56038;46.080;11.116;2023-04-01T09:02:49;98368.88;;;11.94;64.64
68988;BME280;56038;46.080;11.116;2023-04-01T09:08:00;98356.06;;;12.18;64.57
68988;BME280;56038;46.080;11.116;2023-04-01T09:13:19;98352.56;;;12.58;63.40
68988;BME280;56038;46.080;11.116;2023-04-01T09:24:20;98341.72;;;13.17;59.58
68988;BME280;56038;46.080;11.116;2023-04-01T09:29:38;98342.31;;;13.60;60.39
68988;BME280;56038;46.080;11.116;2023-04-01T09:34:57;98335.53;;;13.94;57.17
68988;BME280;56038;46.080;11.116;2023-04-01T09:40:16;98324.56;;;14.50;55.70
68988;BME280;56038;46.080;11.116;2023-04-01T09:45:35;98314.47;;;14.91;55.77
68988;BME280;56038;46.080;11.116;2023-04-01T09:50:49;98307.78;;;15.34;53.99
68988;BME280;56038;46.080;11.116;2023-04-01T10:01:42;98298.00;;;16.03;52.34
68988;BME280;56038;46.080;11.116;2023-04-01T10:07:08;98283.00;;;16.26;51.31
68988;BME280;56038;46.080;11.116;2023-04-01T10:23:31;98272.59;;;17.09;46.41
68988;BME280;56038;46.080;11.116;2023-04-01T10:34:32;98245.16;;;18.32;45.05
68988;BME280;56038;46.080;11.116;2023-04-01T10:40:07;98242.22;;;18.93;41.65
68988;BME280;56038;46.080;11.116;2023-04-01T10:45:39;98237.19;;;19.09;41.05
68988;BME280;56038;46.080;11.116;2023-04-01T10:51:04;98222.44;;;19.44;39.82
68988;BME280;56038;46.080;11.116;2023-04-01T10:56:33;98218.22;;;19.61;37.41
68988;BME280;56038;46.080;11.116;2023-04-01T11:02:05;98201.78;;;19.85;35.75
68988;BME280;56038;46.080;11.116;2023-04-01T11:13:21;98179.94;;;20.72;34.86
68988;BME280;56038;46.080;11.116;2023-04-01T11:19:08;98172.03;;;21.06;33.18
68988;BME280;56038;46.080;11.116;2023-04-01T11:24:36;98165.41;;;21.10;32.44
68988;BME280;56038;46.080;11.116;2023-04-01T11:30:01;98152.09;;;21.70;32.33
68988;BME280;56038;46.080;11.116;2023-04-01T11:35:25;98139.13;;;21.75;32.97
68988;BME280;56038;46.080;11.116;2023-04-01T11:40:35;98129.09;;;22.52;33.36
68988;BME280;56038;46.080;11.116;2023-04-01T11:45:44;98126.28;;;22.53;30.65
68988;BME280;56038;46.080;11.116;2023-04-01T11:51:04;98111.31;;;23.32;31.26
68988;BME280;56038;46.080;11.116;2023-04-01T11:56:21;98102.06;;;23.82;28.74
68988;BME280;56038;46.080;11.116;2023-04-01T12:01:44;98091.06;;;24.08;28.35
68988;BME280;56038;46.080;11.116;2023-04-01T12:06:56;98085.09;;;24.81;29.63
68988;BME280;56038;46.080;11.116;2023-04-01T12:12:12;98085.59;;;25.14;25.94
68988;BME280;56038;46.080;11.116;2023-04-01T12:17:29;98076.88;;;25.56;25.60
68988;BME280;56038;46.080;11.116;2023-04-01T12:22:44;98079.16;;;25.59;23.12
68988;BME280;56038;46.080;11.116;2023-04-01T12:28:01;98062.91;;;25.97;23.47
68988;BME280;56038;46.080;11.116;2023-04-01T12:33:41;98060.53;;;26.30;22.43
68988;BME280;56038;46.080;11.116;2023-04-01T12:38:51;98055.00;;;26.88;23.39
68988;BME280;56038;46.080;11.116;2023-04-01T12:44:11;98052.75;;;27.26;22.72
68988;BME280;56038;46.080;11.116;2023-04-01T12:49:37;98050.78;;;27.61;20.99
68988;BME280;56038;46.080;11.116;2023-04-01T12:55:23;98044.16;;;28.44;19.83
68988;BME280;56038;46.080;11.116;2023-04-01T13:00:39;98033.97;;;28.73;20.55
68988;BME280;56038;46.080;11.116;2023-04-01T13:06:13;98027.97;;;27.78;19.69
68988;BME280;56038;46.080;11.116;2023-04-01T13:11:27;98021.50;;;27.05;22.31
68988;BME280;56038;46.080;11.116;2023-04-01T13:16:35;98020.78;;;26.90;22.71
68988;BME280;56038;46.080;11.116;2023-04-01T13:21:51;98023.84;;;26.03;21.65
68988;BME280;56038;46.080;11.116;2023-04-01T13:26:59;98019.78;;;24.98;23.25
68988;BME280;56038;46.080;11.116;2023-04-01T13:32:17;98021.72;;;24.75;21.38
68988;BME280;56038;46.080;11.116;2023-04-01T13:37:34;98028.13;;;25.39;19.72
68988;BME280;56038;46.080;11.116;2023-04-01T13:42:42;98031.94;;;24.19;22.32
68988;BME280;56038;46.080;11.116;2023-04-01T13:48:11;98024.91;;;22.79;22.04
68988;BME280;56038;46.080;11.116;2023-04-01T13:53:47;98026.22;;;22.11;22.45
68988;BME280;56038;46.080;11.116;2023-04-01T13:59:00;98023.69;;;21.69;23.68
68988;BME280;56038;46.080;11.116;2023-04-01T14:09:44;98006.13;;;20.76;25.49
68988;BME280;56038;46.080;11.116;2023-04-01T14:14:57;98009.25;;;22.21;24.26
68988;BME280;56038;46.080;11.116;2023-04-01T14:20:21;98003.53;;;23.35;24.69
68988;BME280;56038;46.080;11.116;2023-04-01T14:25:44;98000.63;;;24.13;22.70
68988;BME280;56038;46.080;11.116;2023-04-01T14:31:16;98002.50;;;24.65;22.13
68988;BME280;56038;46.080;11.116;2023-04-01T14:36:53;97995.56;;;24.85;21.12
68988;BME280;56038;46.080;11.116;2023-04-01T14:42:12;97998.88;;;24.58;20.84
68988;BME280;56038;46.080;11.116;2023-04-01T14:52:49;97979.81;;;23.94;23.00
68988;BME280;56038;46.080;11.116;2023-04-01T14:58:09;97980.91;;;23.84;19.75
68988;BME280;56038;46.080;11.116;2023-04-01T15:03:16;97985.22;;;23.31;23.10
68988;BME280;56038;46.080;11.116;2023-04-01T15:08:23;97963.91;;;22.61;24.36
68988;BME280;56038;46.080;11.116;2023-04-01T15:19:12;97976.53;;;22.12;25.01
68988;BME280;56038;46.080;11.116;2023-04-01T15:24:21;97979.84;;;21.81;24.70
68988;BME280;56038;46.080;11.116;2023-04-01T15:29:36;97980.47;;;21.51;24.47
68988;BME280;56038;46.080;11.116;2023-04-01T15:34:50;97984.78;;;20.93;24.92
68988;BME280;56038;46.080;11.116;2023-04-01T15:40:02;97993.38;;;20.45;24.93
68988;BME280;56038;46.080;11.116;2023-04-01T15:45:22;97980.91;;;19.94;25.35
68988;BME280;56038;46.080;11.116;2023-04-01T15:50:51;97986.16;;;19.68;25.97
68988;BME280;56038;46.080;11.116;2023-04-01T15:55:57;97991.94;;;19.54;26.53
68988;BME280;56038;46.080;11.116;2023-04-01T16:01:13;97999.97;;;19.26;26.91
68988;BME280;56038;46.080;11.116;2023-04-01T16:06:45;98002.28;;;18.94;26.95
68988;BME280;56038;46.080;11.116;2023-04-01T16:11:56;98005.25;;;18.81;27.68
68988;BME280;56038;46.080;11.116;2023-04-01T16:17:09;98002.53;;;18.53;28.02
68988;BME280;56038;46.080;11.116;2023-04-01T16:22:23;98003.75;;;18.59;28.20
68988;BME280;56038;46.080;11.116;2023-04-01T16:27:29;98014.44;;;18.30;29.22
68988;BME280;56038;46.080;11.116;2023-04-01T16:32:41;98012.13;;;18.08;29.64
68988;BME280;56038;46.080;11.116;2023-04-01T16:37:49;98012.97;;;17.99;30.10
68988;BME280;56038;46.080;11.116;2023-04-01T16:42:53;98010.91;;;17.92;30.35
68988;BME280;56038;46.080;11.116;2023-04-01T16:48:05;98025.50;;;17.77;30.35
68988;BME280;56038;46.080;11.116;2023-04-01T16:53:10;98028.66;;;17.61;30.17
68988;BME280;56038;46.080;11.116;2023-04-01T16:58:23;98038.38;;;17.51;30.38
68988;BME280;56038;46.080;11.116;2023-04-01T17:03:29;98037.53;;;17.31;30.89
68988;BME280;56038;46.080;11.116;2023-04-01T17:08:49;98044.63;;;17.21;31.13
68988;BME280;56038;46.080;11.116;2023-04-01T17:14:02;98057.72;;;17.02;31.21
68988;BME280;56038;46.080;11.116;2023-04-01T17:19:17;98054.06;;;16.84;31.95
68988;BME280;56038;46.080;11.116;2023-04-01T17:24:35;98063.38;;;16.57;32.59
68988;BME280;56038;46.080;11.116;2023-04-01T17:29:59;98069.22;;;16.40;32.38
68988;BME280;56038;46.080;11.116;2023-04-01T17:35:09;98089.56;;;16.28;32.47
68988;BME280;56038;46.080;11.116;2023-04-01T17:40:31;98095.69;;;16.17;32.51
68988;BME280;56038;46.080;11.116;2023-04-01T17:45:42;98097.81;;;16.03;32.94
68988;BME280;56038;46.080;11.116;2023-04-01T17:51:01;98110.53;;;15.98;32.87
68988;BME280;56038;46.080;11.116;2023-04-01T17:56:12;98104.91;;;15.91;33.38
68988;BME280;56038;46.080;11.116;2023-04-01T18:01:30;98118.97;;;15.80;33.50
68988;BME280;56038;46.080;11.116;2023-04-01T18:06:58;98128.69;;;15.69;33.81
68988;BME280;56038;46.080;11.116;2023-04-01T18:12:14;98150.25;;;15.63;34.39
68988;BME280;56038;46.080;11.116;2023-04-01T18:17:24;98159.22;;;15.60;34.52
68988;BME280;56038;46.080;11.116;2023-04-01T18:22:32;98172.38;;;15.49;34.93
68988;BME280;56038;46.080;11.116;2023-04-01T18:27:39;98185.88;;;15.44;34.97
68988;BME280;56038;46.080;11.116;2023-04-01T18:32:48;98188.53;;;15.33;34.96
68988;BME280;56038;46.080;11.116;2023-04-01T18:37:57;98193.44;;;15.38;35.36
68988;BME280;56038;46.080;11.116;2023-04-01T18:43:10;98211.84;;;15.26;35.38
68988;BME280;56038;46.080;11.116;2023-04-01T18:48:30;98222.00;;;15.09;36.18
68988;BME280;56038;46.080;11.116;2023-04-01T18:53:39;98212.53;;;14.95;36.57
68988;BME280;56038;46.080;11.116;2023-04-01T18:58:46;98225.56;;;14.85;36.93
68988;BME280;56038;46.080;11.116;2023-04-01T19:04:00;98235.69;;;14.67;37.91
68988;BME280;56038;46.080;11.116;2023-04-01T19:09:20;98241.00;;;14.66;37.81
68988;BME280;56038;46.080;11.116;2023-04-01T19:14:29;98236.94;;;14.62;37.92
68988;BME280;56038;46.080;11.116;2023-04-01T19:19:43;98256.78;;;14.66;37.68
68988;BME280;56038;46.080;11.116;2023-04-01T19:25:18;98256.78;;;14.66;38.06
68988;BME280;56038;46.080;11.116;2023-04-01T19:30:47;98270.69;;;14.68;38.39
68988;BME280;56038;46.080;11.116;2023-04-01T19:35:59;98268.53;;;14.73;38.24
68988;BME280;56038;46.080;11.116;2023-04-01T19:41:16;98268.78;;;14.70;38.46
68988;BME280;56038;46.080;11.116;2023-04-01T19:46:28;98263.34;;;14.60;38.91
68988;BME280;56038;46.080;11.116;2023-04-01T19:51:37;98256.47;;;14.47;39.46
68988;BME280;56038;46.080;11.116;2023-04-01T19:56:47;98267.66;;;14.37;39.61
68988;BME280;56038;46.080;11.116;2023-04-01T20:01:51;98268.31;;;14.28;39.80
68988;BME280;56038;46.080;11.116;2023-04-01T20:06:57;98267.28;;;14.18;40.05
68988;BME280;56038;46.080;11.116;2023-04-01T20:12:08;98275.75;;;14.11;40.18
68988;BME280;56038;46.080;11.116;2023-04-01T20:17:19;98274.66;;;14.13;40.26
68988;BME280;56038;46.080;11.116;2023-04-01T20:22:31;98264.63;;;14.07;40.77
68988;BME280;56038;46.080;11.116;2023-04-01T20:27:39;98276.00;;;13.95;40.73
68988;BME280;56038;46.080;11.116;2023-04-01T20:33:01;98273.72;;;13.77;41.52
68988;BME280;56038;46.080;11.116;2023-04-01T20:38:24;98281.38;;;13.81;41.11
68988;BME280;56038;46.080;11.116;2023-04-01T20:43:54;98285.56;;;13.83;41.26
68988;BME280;56038;46.080;11.116;2023-04-01T20:49:14;98292.84;;;13.79;41.66
68988;BME280;56038;46.080;11.116;2023-04-01T20:54:34;98297.25;;;13.54;42.37
68988;BME280;56038;46.080;11.116;2023-04-01T20:59:59;98302.31;;;13.44;42.64
68988;BME280;56038;46.080;11.116;2023-04-01T21:05:30;98304.63;;;13.36;43.26
68988;BME280;56038;46.080;11.116;2023-04-01T21:10:41;98306.94;;;13.28;43.06
68988;BME280;56038;46.080;11.116;2023-04-01T21:15:56;98304.16;;;13.16;43.71
68988;BME280;56038;46.080;11.116;2023-04-01T21:21:20;98300.38;;;13.08;44.82
68988;BME280;56038;46.080;11.116;2023-04-01T21:26:42;98303.19;;;13.05;44.80
68988;BME280;56038;46.080;11.116;2023-04-01T21:32:06;98311.38;;;13.00;44.95
68988;BME280;56038;46.080;11.116;2023-04-01T21:37:26;98316.72;;;12.86;45.37
68988;BME280;56038;46.080;11.116;2023-04-01T21:42:40;98326.09;;;12.63;46.71
68988;BME280;56038;46.080;11.116;2023-04-01T21:48:20;98325.97;;;12.38;47.29
68988;BME280;56038;46.080;11.116;2023-04-01T21:54:06;98335.44;;;12.26;46.88
68988;BME280;56038;46.080;11.116;2023-04-01T22:00:12;98336.84;;;12.32;46.99
68988;BME280;56038;46.080;11.116;2023-04-01T22:05:22;98346.66;;;12.28;46.29
68988;BME280;56038;46.080;11.116;2023-04-01T22:10:33;98347.16;;;12.20;46.64
68988;BME280;56038;46.080;11.116;2023-04-01T22:15:50;98355.38;;;12.14;47.41
68988;BME280;56038;46.080;11.116;2023-04-01T22:20:59;98364.19;;;11.99;46.98
68988;BME280;56038;46.080;11.116;2023-04-01T22:26:13;98358.88;;;12.01;47.48
68988;BME280;56038;46.080;11.116;2023-04-01T22:31:22;98358.31;;;11.95;47.58
68988;BME280;56038;46.080;11.116;2023-04-01T22:36:31;98352.97;;;11.97;47.40
68988;BME280;56038;46.080;11.116;2023-04-01T22:41:46;98362.25;;;12.03;47.71
68988;BME280;56038;46.080;11.116;2023-04-01T22:46:58;98358.69;;;12.04;47.42
68988;BME280;56038;46.080;11.116;2023-04-01T22:52:09;98359.25;;;11.94;48.29
68988;BME280;56038;46.080;11.116;2023-04-01T22:57:28;98371.03;;;11.87;47.80
68988;BME280;56038;46.080;11.116;2023-04-01T23:02:37;98370.56;;;11.95;47.92
68988;BME280;56038;46.080;11.116;2023-04-01T23:07:48;98373.06;;;11.96;48.23
68988;BME280;56038;46.080;11.116;2023-04-01T23:12:56;98386.06;;;11.98;48.37
68988;BME280;56038;46.080;11.116;2023-04-01T23:18:05;98391.97;;;12.02;47.94
68988;BME280;56038;46.080;11.116;2023-04-01T23:23:23;98382.25;;;12.04;48.44
68988;BME280;56038;46.080;11.116;2023-04-01T23:28:45;98394.22;;;11.93;49.56
68988;BME280;56038;46.080;11.116;2023-04-01T23:33:53;98388.19;;;11.77;49.75
68988;BME280;56038;46.080;11.116;2023-04-01T23:39:00;98390.78;;;11.63;49.12
68988;BME280;56038;46.080;11.116;2023-04-01T23:44:07;98390.44;;;11.69;49.00
68988;BME280;56038;46.080;11.116;2023-04-01T23:49:13;98404.28;;;11.71;49.41
68988;BME280;56038;46.080;11.116;2023-04-01T23:54:19;98408.75;;;11.55;49.72
68988;BME280;56038;46.080;11.116;2023-04-01T23:59:28;98407.72;;;11.57;49.67
